createdAt,value
2023-05-08T00:01:00.929Z,102376.47
2023-05-08T00:04:05.100Z,102370.34
2023-05-08T00:07:08.668Z,102373.00
2023-05-08T00:10:13.721Z,102360.81
2023-05-08T00:13:17.693Z,102373.88
2023-05-08T00:16:22.708Z,102372.13
2023-05-08T00:19:26.308Z,102366.88
2023-05-08T00:22:29.832Z,102366.00
2023-05-08T00:25:33.423Z,102362.50
2023-05-08T00:28:36.982Z,102366.00
2023-05-08T00:31:41.934Z,102367.78
2023-05-08T00:34:45.495Z,102380.84
2023-05-08T00:37:49.126Z,102367.78
2023-05-08T00:40:52.953Z,102379.97
2023-05-08T00:43:56.612Z,102374.72
2023-05-08T00:47:01.863Z,102380.84
2023-05-08T00:50:07.282Z,102387.81
2023-05-08T00:53:13.768Z,102386.09
2023-05-08T00:56:18.287Z,102381.75
2023-05-08T00:59:23.665Z,102376.50
2023-05-08T01:02:29.095Z,102369.53
2023-05-08T01:05:33.316Z,102370.41
2023-05-08T01:08:36.833Z,102377.38
2023-05-08T01:12:01.609Z,102371.28
2023-05-08T01:15:17.670Z,102365.19
2023-05-08T01:18:32.366Z,102365.19
2023-05-08T01:21:46.807Z,102366.09
2023-05-08T01:25:29.503Z,102366.94
2023-05-08T01:29:07.777Z,102365.22
2023-05-08T01:32:20.458Z,102363.47
2023-05-08T01:35:30.913Z,102359.13
2023-05-08T01:38:44.327Z,102360.00
2023-05-08T01:42:00.159Z,102366.09
2023-05-08T01:45:14.096Z,102375.69
2023-05-08T01:48:26.825Z,102367.84
2023-05-08T01:51:37.388Z,102369.59
2023-05-08T01:54:49.722Z,102365.25
2023-05-08T01:57:59.222Z,102364.34
2023-05-08T02:01:04.762Z,102364.38
2023-05-08T02:04:12.716Z,102363.50
2023-05-08T02:07:16.889Z,102372.22
2023-05-08T02:10:26.210Z,102377.44
2023-05-08T02:13:32.039Z,102382.69
2023-05-08T02:16:38.453Z,102382.66
2023-05-08T02:19:45.789Z,102382.66
2023-05-08T02:22:53.109Z,102389.66
2023-05-08T02:25:58.287Z,102377.41
2023-05-08T02:29:04.513Z,102383.53
2023-05-08T02:32:09.995Z,102378.28
2023-05-08T02:35:19.614Z,102381.75
2023-05-08T02:38:26.895Z,102380.91
2023-05-08T02:41:34.910Z,102382.63
2023-05-08T02:44:38.634Z,102380.00
2023-05-08T02:48:08.923Z,102385.22
2023-05-08T02:51:24.705Z,102387.81
2023-05-08T02:54:39.475Z,102380.88
2023-05-08T02:57:51.990Z,102383.47
2023-05-08T03:01:06.586Z,102376.50
2023-05-08T03:04:13.753Z,102378.22
2023-05-08T03:07:22.802Z,102376.47
2023-05-08T03:10:34.279Z,102373.00
2023-05-08T03:13:43.111Z,102369.53
2023-05-08T03:16:52.096Z,102362.53
2023-05-08T03:20:01.951Z,102363.41
2023-05-08T03:23:10.842Z,102359.03
2023-05-08T03:26:19.610Z,102349.44
2023-05-08T03:29:25.744Z,102346.88
2023-05-08T03:32:31.099Z,102337.28
2023-05-08T03:35:38.284Z,102342.47
2023-05-08T03:38:44.005Z,102341.63
2023-05-08T03:41:48.038Z,102343.38
2023-05-08T03:44:53.326Z,102340.75
2023-05-08T03:47:57.646Z,102345.09
2023-05-08T03:51:03.452Z,102348.59
2023-05-08T03:54:08.311Z,102348.59
2023-05-08T03:57:11.988Z,102341.63
2023-05-08T04:00:26.825Z,102348.53
2023-05-08T04:03:49.313Z,102345.06
2023-05-08T04:07:05.137Z,102338.09
2023-05-08T04:10:17.583Z,102344.22
2023-05-08T04:13:29.968Z,102343.31
2023-05-08T04:16:41.198Z,102345.06
2023-05-08T04:19:48.261Z,102338.97
2023-05-08T04:22:55.364Z,102344.19
2023-05-08T04:26:05.358Z,102344.19
2023-05-08T04:29:09.880Z,102341.56
2023-05-08T04:32:14.493Z,102360.72
2023-05-08T04:35:18.206Z,102362.50
2023-05-08T04:38:21.682Z,102366.88
2023-05-08T04:41:27.153Z,102361.69
2023-05-08T04:44:30.783Z,102358.22
2023-05-08T04:47:34.418Z,102359.97
2023-05-08T04:50:38.012Z,102355.63
2023-05-08T04:53:41.582Z,102360.00
2023-05-08T04:56:46.425Z,102363.50
2023-05-08T04:59:50.065Z,102366.13
2023-05-08T05:02:53.648Z,102365.25
2023-05-08T05:06:00.131Z,102360.91
2023-05-08T05:09:03.668Z,102368.75
2023-05-08T05:12:09.003Z,102376.56
2023-05-08T05:15:13.410Z,102367.84
2023-05-08T05:18:17.260Z,102359.13
2023-05-08T05:21:20.860Z,102359.06
2023-05-08T05:24:24.403Z,102360.81
2023-05-08T05:27:29.233Z,102370.34
2023-05-08T05:30:32.741Z,102361.31
2023-05-08T05:33:36.215Z,102363.94
2023-05-08T05:36:39.796Z,102367.63
2023-05-08T05:39:43.275Z,102365.88
2023-05-08T05:42:52.263Z,102366.44
2023-05-08T05:45:56.165Z,102364.78
2023-05-08T05:48:59.815Z,102370.66
2023-05-08T05:52:03.353Z,102381.84
2023-05-08T05:55:07.937Z,102390.84
2023-05-08T05:58:12.821Z,102394.25
2023-05-08T06:01:16.573Z,102391.41
2023-05-08T06:04:20.360Z,102396.78
2023-05-08T06:07:24.105Z,102381.59
2023-05-08T06:10:27.918Z,102378.38
2023-05-08T06:13:33.171Z,102384.13
2023-05-08T06:16:36.809Z,102379.63
2023-05-08T06:19:40.424Z,102382.47
2023-05-08T06:22:44.085Z,102386.16
2023-05-08T06:25:48.075Z,102378.66
2023-05-08T06:28:53.149Z,102383.53
2023-05-08T06:31:56.960Z,102380.88
2023-05-08T06:35:00.668Z,102366.16
2023-05-08T06:38:04.511Z,102370.13
2023-05-08T06:41:08.085Z,102366.88
2023-05-08T06:44:13.303Z,102362.00
2023-05-08T06:47:16.870Z,102369.22
2023-05-08T06:50:20.741Z,102366.78
2023-05-08T06:53:24.231Z,102353.84
2023-05-08T06:56:27.751Z,102351.16
2023-05-08T06:59:32.579Z,102355.44
2023-05-08T07:02:36.157Z,102362.50
2023-05-08T07:05:39.787Z,102363.06
2023-05-08T07:08:43.454Z,102357.94
2023-05-08T07:11:48.171Z,102352.28
2023-05-08T07:14:53.829Z,102351.16
2023-05-08T07:17:58.265Z,102342.53
2023-05-08T07:21:01.765Z,102336.31
2023-05-08T07:24:05.853Z,102346.22
2023-05-08T07:27:09.992Z,102330.34
2023-05-08T07:30:15.799Z,102328.19
2023-05-08T07:33:19.778Z,102325.66
2023-05-08T07:36:23.516Z,102319.94
2023-05-08T07:39:27.085Z,102326.59
2023-05-08T07:42:30.640Z,102316.69
2023-05-08T07:45:36.960Z,102309.88
2023-05-08T07:48:40.489Z,102308.97
2023-05-08T07:51:43.977Z,102305.78
2023-05-08T07:54:47.427Z,102302.38
2023-05-08T07:57:51.000Z,102315.25
2023-05-08T08:00:55.959Z,102301.41
2023-05-08T08:03:59.608Z,102304.19
2023-05-08T08:07:03.848Z,102303.72
2023-05-08T08:10:09.243Z,102298.88
2023-05-08T08:13:12.922Z,102293.13
2023-05-08T08:16:18.059Z,102301.09
2023-05-08T08:19:21.718Z,102303.22
2023-05-08T08:22:25.839Z,102297.50
2023-05-08T08:25:29.436Z,102297.69
2023-05-08T08:28:33.075Z,102298.50
2023-05-08T08:31:38.193Z,102297.03
2023-05-08T08:34:41.990Z,102297.66
2023-05-08T08:37:45.813Z,102303.03
2023-05-08T08:40:49.458Z,102289.97
2023-05-08T08:43:53.066Z,102300.28
2023-05-08T08:47:00.554Z,102306.50
2023-05-08T08:50:05.550Z,102300.91
2023-05-08T08:53:15.826Z,102297.03
2023-05-08T08:56:24.668Z,102302.97
2023-05-08T08:59:30.927Z,102290.91
2023-05-08T09:02:37.132Z,102292.22
2023-05-08T09:05:41.752Z,102293.66
2023-05-08T09:08:46.161Z,102291.97
2023-05-08T09:11:50.032Z,102291.63
2023-05-08T09:14:53.582Z,102286.34
2023-05-08T09:17:58.650Z,102287.97
2023-05-08T09:21:02.966Z,102278.06
2023-05-08T09:24:07.649Z,102286.66
2023-05-08T09:27:23.448Z,102273.41
2023-05-08T09:30:27.068Z,102269.38
2023-05-08T09:33:31.970Z,102278.25
2023-05-08T09:36:35.956Z,102273.13
2023-05-08T09:39:41.466Z,102268.72
2023-05-08T09:42:45.403Z,102270.25
2023-05-08T09:45:48.954Z,102268.31
2023-05-08T09:48:55.416Z,102275.66
2023-05-08T09:51:59.141Z,102276.16
2023-05-08T09:55:04.969Z,102269.81
2023-05-08T09:58:08.681Z,102265.38
2023-05-08T10:01:31.491Z,102266.41
2023-05-08T10:04:39.203Z,102264.63
2023-05-08T10:07:42.940Z,102270.03
2023-05-08T10:10:46.610Z,102259.28
2023-05-08T10:13:50.121Z,102256.28
2023-05-08T10:16:55.736Z,102254.09
2023-05-08T10:20:09.659Z,102258.06
2023-05-08T10:23:17.958Z,102250.50
2023-05-08T10:26:29.669Z,102250.31
2023-05-08T10:29:42.554Z,102249.81
2023-05-08T10:32:55.229Z,102252.59
2023-05-08T10:36:01.565Z,102248.03
2023-05-08T10:39:06.450Z,102248.66
2023-05-08T10:42:10.023Z,102242.00
2023-05-08T10:45:34.461Z,102246.53
2023-05-08T10:49:01.710Z,102239.78
2023-05-08T10:52:22.314Z,102238.47
2023-05-08T10:55:32.168Z,102232.72
2023-05-08T10:58:39.372Z,102231.81
2023-05-08T11:01:43.816Z,102233.53
2023-05-08T11:04:47.567Z,102237.59
2023-05-08T11:08:03.386Z,102236.47
2023-05-08T11:11:15.181Z,102237.38
2023-05-08T11:14:19.336Z,102238.53
2023-05-08T11:17:26.175Z,102224.06
2023-05-08T11:20:41.119Z,102230.34
2023-05-08T11:23:57.082Z,102225.28
2023-05-08T11:27:00.880Z,102221.91
2023-05-08T11:30:36.131Z,102223.06
2023-05-08T11:33:41.064Z,102215.56
2023-05-08T11:37:03.088Z,102213.00
2023-05-08T11:40:50.556Z,102228.69
2023-05-08T11:44:22.010Z,102216.22
2023-05-08T11:47:32.281Z,102221.25
2023-05-08T11:50:37.628Z,102225.81
2023-05-08T11:53:41.824Z,102224.34
2023-05-08T11:56:50.643Z,102223.25
2023-05-08T11:59:58.317Z,102219.19
2023-05-08T12:03:01.968Z,102221.56
2023-05-08T12:06:06.482Z,102221.34
2023-05-08T12:09:15.925Z,102219.53
2023-05-08T12:12:20.892Z,102204.44
2023-05-08T12:15:24.432Z,102214.50
2023-05-08T12:18:30.890Z,102214.34
2023-05-08T12:21:34.468Z,102205.59
2023-05-08T12:24:38.146Z,102199.53
2023-05-08T12:27:44.202Z,102205.94
2023-05-08T12:30:48.588Z,102196.94
2023-05-08T12:33:52.991Z,102196.38
2023-05-08T12:37:06.135Z,102185.41
2023-05-08T12:40:26.041Z,102181.97
2023-05-08T12:43:39.894Z,102179.75
2023-05-08T12:46:48.776Z,102189.56
2023-05-08T12:49:52.740Z,102182.31
2023-05-08T12:53:02.440Z,102182.84
2023-05-08T12:56:06.863Z,102173.50
2023-05-08T12:59:11.837Z,102172.00
2023-05-08T13:02:18.351Z,102165.59
2023-05-08T13:05:23.888Z,102160.03
2023-05-08T13:08:33.572Z,102158.09
2023-05-08T13:11:38.526Z,102158.22
2023-05-08T13:14:43.559Z,102150.78
2023-05-08T13:17:47.083Z,102157.59
2023-05-08T13:20:50.746Z,102140.84
2023-05-08T13:23:54.341Z,102147.78
2023-05-08T13:26:57.816Z,102136.06
2023-05-08T13:30:02.844Z,102140.84
2023-05-08T13:33:07.168Z,102137.38
2023-05-08T13:36:10.959Z,102136.84
2023-05-08T13:39:15.502Z,102128.19
2023-05-08T13:42:19.122Z,102132.53
2023-05-08T13:45:34.822Z,102129.66
2023-05-08T13:48:38.500Z,102128.84
2023-05-08T13:51:43.844Z,102130.06
2023-05-08T13:54:50.559Z,102119.94
2023-05-08T13:57:54.140Z,102122.59
2023-05-08T14:01:00.369Z,102121.88
2023-05-08T14:04:08.890Z,102111.75
2023-05-08T14:07:12.544Z,102112.50
2023-05-08T14:10:17.107Z,102110.06
2023-05-08T14:13:20.826Z,102109.53
2023-05-08T14:16:25.902Z,102104.00
2023-05-08T14:19:29.444Z,102098.72
2023-05-08T14:22:33.043Z,102098.78
2023-05-08T14:25:36.744Z,102102.53
2023-05-08T14:28:40.270Z,102092.72
2023-05-08T14:31:45.270Z,102088.28
2023-05-08T14:34:49.154Z,102094.84
2023-05-08T14:37:52.690Z,102091.19
2023-05-08T14:40:56.242Z,102084.84
2023-05-08T14:44:00.272Z,102082.06
2023-05-08T14:47:05.451Z,102075.25
2023-05-08T14:50:10.486Z,102080.19
2023-05-08T14:53:14.197Z,102066.66
2023-05-08T14:56:18.101Z,102070.28
2023-05-08T14:59:21.665Z,102070.03
2023-05-08T15:02:27.307Z,102066.84
2023-05-08T15:05:31.313Z,102067.78
2023-05-08T15:08:34.890Z,102071.16
2023-05-08T15:11:38.696Z,102071.66
2023-05-08T15:14:42.264Z,102073.47
2023-05-08T15:17:47.125Z,102060.78
2023-05-08T15:20:50.638Z,102060.59
2023-05-08T15:23:54.837Z,102060.31
2023-05-08T15:26:58.416Z,102064.47
2023-05-08T15:30:01.925Z,102055.50
2023-05-08T15:33:07.020Z,102060.50
2023-05-08T15:36:10.631Z,102060.13
2023-05-08T15:39:14.554Z,102065.31
2023-05-08T15:42:18.017Z,102059.56
2023-05-08T15:45:30.492Z,102051.53
2023-05-08T15:48:35.549Z,102060.00
2023-05-08T15:51:39.194Z,102049.13
2023-05-08T15:54:42.765Z,102053.06
2023-05-08T15:57:46.270Z,102043.69
2023-05-08T16:00:50.022Z,102051.88
2023-05-08T16:03:54.993Z,102058.34
2023-05-08T16:07:00.011Z,102067.44
2023-05-08T16:10:05.331Z,102061.31
2023-05-08T16:13:10.553Z,102064.47
2023-05-08T16:16:14.374Z,102072.28
2023-05-08T16:19:19.352Z,102069.41
2023-05-08T16:22:23.877Z,102069.72
2023-05-08T16:25:27.774Z,102062.59
2023-05-08T16:28:31.371Z,102065.00
2023-05-08T16:31:35.011Z,102063.16
2023-05-08T16:34:40.008Z,102055.34
2023-05-08T16:37:44.038Z,102047.09
2023-05-08T16:40:47.789Z,102048.47
2023-05-08T16:43:51.445Z,102051.38
2023-05-08T16:46:54.995Z,102042.34
2023-05-08T16:49:59.978Z,102047.53
2023-05-08T16:53:03.676Z,102034.91
2023-05-08T16:56:08.185Z,102039.22
2023-05-08T16:59:11.743Z,102040.03
2023-05-08T17:02:18.689Z,102032.06
2023-05-08T17:05:24.414Z,102032.31
2023-05-08T17:08:27.848Z,102035.28
2023-05-08T17:11:31.337Z,102030.75
2023-05-08T17:14:35.092Z,102034.69
2023-05-08T17:17:38.732Z,102022.94
2023-05-08T17:20:43.727Z,102026.53
2023-05-08T17:23:47.313Z,102023.00
2023-05-08T17:26:50.830Z,102021.59
2023-05-08T17:29:56.528Z,102020.28
2023-05-08T17:33:00.264Z,102024.09
2023-05-08T17:36:05.882Z,102026.28
2023-05-08T17:39:09.377Z,102029.88
2023-05-08T17:42:12.979Z,102027.81
2023-05-08T17:45:16.469Z,102027.69
2023-05-08T17:48:19.969Z,102026.72
2023-05-08T17:51:24.904Z,102038.22
2023-05-08T17:54:28.511Z,102040.22
2023-05-08T17:57:32.102Z,102031.22
2023-05-08T18:00:35.548Z,102039.53
2023-05-08T18:03:39.174Z,102039.09
2023-05-08T18:06:47.441Z,102039.81
2023-05-08T18:09:50.977Z,102034.78
2023-05-08T18:12:54.456Z,102038.72
2023-05-08T18:16:21.203Z,102041.72
2023-05-08T18:19:25.153Z,102045.94
2023-05-08T18:22:30.114Z,102044.72
2023-05-08T18:25:33.586Z,102048.69
2023-05-08T18:28:37.429Z,102049.53
2023-05-08T18:31:41.548Z,102049.06
2023-05-08T18:34:45.258Z,102058.09
2023-05-08T18:37:50.634Z,102057.53
2023-05-08T18:40:54.207Z,102056.28
2023-05-08T18:44:01.412Z,102060.13
2023-05-08T18:47:05.330Z,102061.88
2023-05-08T18:50:10.490Z,102059.06
2023-05-08T18:53:15.577Z,102070.03
2023-05-08T18:56:19.626Z,102067.34
2023-05-08T18:59:23.306Z,102072.19
2023-05-08T19:02:28.101Z,102067.25
2023-05-08T19:05:31.766Z,102066.66
2023-05-08T19:08:36.659Z,102065.19
2023-05-08T19:11:40.205Z,102063.84
2023-05-08T19:14:43.850Z,102062.72
2023-05-08T19:17:47.576Z,102061.38
2023-05-08T19:20:51.147Z,102060.84
2023-05-08T19:23:56.186Z,102059.41
2023-05-08T19:27:00.137Z,102064.81
2023-05-08T19:30:04.487Z,102059.34
2023-05-08T19:33:08.531Z,102061.47
2023-05-08T19:36:12.042Z,102058.13
2023-05-08T19:39:17.836Z,102061.03
2023-05-08T19:42:21.822Z,102057.69
2023-05-08T19:45:25.795Z,102060.25
2023-05-08T19:48:29.413Z,102070.31
2023-05-08T19:51:33.318Z,102073.16
2023-05-08T19:54:38.381Z,102074.22
2023-05-08T19:57:41.994Z,102064.94
2023-05-08T20:00:50.905Z,102073.97
2023-05-08T20:03:54.890Z,102069.69
2023-05-08T20:06:59.038Z,102072.41
2023-05-08T20:10:04.282Z,102072.59
2023-05-08T20:13:07.783Z,102071.19
2023-05-08T20:16:11.498Z,102064.25
2023-05-08T20:19:15.210Z,102068.63
2023-05-08T20:22:18.792Z,102068.06
2023-05-08T20:25:23.819Z,102061.19
2023-05-08T20:28:27.346Z,102058.66
2023-05-08T20:31:30.979Z,102067.28
2023-05-08T20:34:34.607Z,102064.63
2023-05-08T20:37:45.169Z,102064.94
2023-05-08T20:40:50.316Z,102065.00
2023-05-08T20:43:53.845Z,102053.00
2023-05-08T20:46:57.556Z,102054.84
2023-05-08T20:50:01.036Z,102055.19
2023-05-08T20:53:04.610Z,102056.31
2023-05-08T20:56:09.797Z,102046.75
2023-05-08T20:59:13.913Z,102055.66
2023-05-08T21:02:17.445Z,102048.63
2023-05-08T21:05:20.973Z,102052.34
2023-05-08T21:08:26.368Z,102045.47
2023-05-08T21:11:31.298Z,102040.19
2023-05-08T21:14:36.579Z,102046.41
2023-05-08T21:17:40.155Z,102036.81
2023-05-08T21:20:49.653Z,102040.44
2023-05-08T21:23:53.459Z,102033.47
2023-05-08T21:26:59.731Z,102023.75
2023-05-08T21:30:03.508Z,102017.59
2023-05-08T21:33:07.059Z,102013.28
2023-05-08T21:36:10.600Z,102031.00
2023-05-08T21:39:14.678Z,102021.31
2023-05-08T21:42:19.541Z,102021.31
2023-05-08T21:45:23.131Z,102030.22
2023-05-08T21:48:26.665Z,102015.28
2023-05-08T21:51:30.176Z,102009.94
2023-05-08T21:54:33.636Z,102014.25
2023-05-08T21:57:38.680Z,102005.59
2023-05-08T22:00:42.420Z,102013.47
2023-05-08T22:03:45.914Z,102005.41
2023-05-08T22:06:49.609Z,102005.31
2023-05-08T22:09:53.073Z,102000.25
2023-05-08T22:12:58.127Z,101999.91
2023-05-08T22:16:01.749Z,101998.00
2023-05-08T22:19:05.353Z,101996.19
2023-05-08T22:22:09.007Z,101988.16
2023-05-08T22:25:13.079Z,101992.53
2023-05-08T22:28:18.448Z,101984.50
2023-05-08T22:31:22.263Z,101989.00
2023-05-08T22:34:26.300Z,101983.88
2023-05-08T22:37:29.991Z,101994.47
2023-05-08T22:40:33.581Z,101989.25
2023-05-08T22:43:39.210Z,101985.06
2023-05-08T22:46:42.941Z,101976.91
2023-05-08T22:49:48.083Z,101971.88
2023-05-08T22:52:51.774Z,101968.44
2023-05-08T22:55:55.313Z,101969.50
2023-05-08T22:59:00.283Z,101978.38
2023-05-08T23:02:03.861Z,101967.84
2023-05-08T23:05:09.226Z,101968.59
2023-05-08T23:08:12.679Z,101959.19
2023-05-08T23:11:16.562Z,101968.19
2023-05-08T23:14:21.455Z,101959.63
2023-05-08T23:17:24.993Z,101948.28
2023-05-08T23:20:28.631Z,101949.06
2023-05-08T23:23:32.700Z,101950.84
2023-05-08T23:26:36.440Z,101939.66
2023-05-08T23:29:41.516Z,101948.59
2023-05-08T23:32:45.693Z,101936.38
2023-05-08T23:35:49.140Z,101936.56
2023-05-08T23:38:52.643Z,101932.91
2023-05-08T23:41:56.138Z,101932.84
2023-05-08T23:45:01.076Z,101926.91
2023-05-08T23:48:04.982Z,101924.28
2023-05-08T23:51:08.533Z,101927.94
2023-05-08T23:54:11.973Z,101929.06
2023-05-08T23:57:15.491Z,101929.94
